Time;durP1;ratioP1;P1;durP2;ratioP2;P2;SDS_P1;SDS_P2;PMS_P1;PMS_P2;Temp;Humidity;BMP_temperature;BMP_pressure;BME280_temperature;BME280_humidity;BME280_pressure;Samples;Min_cycle;Max_cycle;Signal;HPM_P1;HPM_P2
2023/01/20 00:02:21;;;;;;;69.47;30.52;;;;;;;;;;5022130;28;20041;-83
2023/01/20 00:04:49;;;;;;;94.30;46.20;;;;;;;0.07;100.00;66788.06;5038304;28;20103;-82
2023/01/20 00:07:14;;;;;;;89.32;41.03;;;;;;;0.08;100.00;66791.78;5038155;28;20046;-83
2023/01/20 00:09:40;;;;;;;92.40;43.40;;;;;;;0.08;100.00;66789.16;5030712;28;20570;-82
2023/01/20 00:12:05;;;;;;;98.25;44.60;;;;;;;0.07;100.00;66790.66;5028320;28;20034;-84
2023/01/20 00:14:30;;;;;;;94.80;46.08;;;;;;;;;;5033601;28;20127;-83
2023/01/20 00:16:56;;;;;;;91.10;40.90;;;;;;;0.13;100.00;66794.78;5035424;28;20056;-83
2023/01/20 00:19:22;;;;;;;84.70;36.60;;;;;;;0.14;100.00;66795.91;5025484;28;20041;-83
2023/01/20 00:21:47;;;;;;;92.20;38.90;;;;;;;0.15;100.00;66797.06;5024688;28;20045;-82
2023/01/20 00:24:13;;;;;;;86.50;39.28;;;;;;;;;;5044044;28;20091;-82
2023/01/20 00:26:38;;;;;;;91.95;43.28;;;;;;;0.18;100.00;66800.41;5032836;28;20492;-82
2023/01/20 00:29:04;;;;;;;96.15;48.80;;;;;;;;;;5017074;28;20049;-82
2023/01/20 00:31:31;;;;;;;92.63;44.05;;;;;;;0.22;100.00;66804.34;5030879;28;20483;-83
2023/01/20 00:33:58;;;;;;;74.90;35.05;;;;;;;0.20;100.00;66804.72;5032274;28;20061;-83
2023/01/20 00:36:25;;;;;;;107.88;45.22;;;;;;;0.20;100.00;66802.69;5026796;28;20041;-83
2023/01/20 00:38:51;;;;;;;94.53;44.75;;;;;;;0.17;100.00;66798.72;5030818;28;20038;-83
2023/01/20 00:41:17;;;;;;;96.80;42.60;;;;;;;0.16;100.00;66797.59;5025338;28;20435;-84
2023/01/20 00:43:43;;;;;;;94.22;45.75;;;;;;;0.16;100.00;66797.59;5029659;28;20053;-83
2023/01/20 00:46:09;;;;;;;110.53;50.75;;;;;;;0.15;100.00;66797.06;5023038;28;20044;-83
2023/01/20 00:48:35;;;;;;;85.65;36.42;;;;;;;;;;5029170;28;20045;-83
2023/01/20 00:51:01;;;;;;;94.72;41.28;;;;;;;0.14;100.00;66795.34;5025458;28;20107;-84
2023/01/20 00:53:27;;;;;;;98.45;47.75;;;;;;;0.16;100.00;66797.59;5026787;28;20052;-82
2023/01/20 00:55:52;;;;;;;107.28;45.20;;;;;;;0.18;100.00;66794.63;5030813;28;20680;-84
2023/01/20 00:58:18;;;;;;;95.15;43.22;;;;;;;;;;5035699;28;20458;-83
2023/01/20 01:00:46;;;;;;;103.25;47.63;;;;;;;0.19;100.00;66800.97;5028004;28;20428;-83
2023/01/20 01:03:11;;;;;;;108.32;52.33;;;;;;;0.17;100.00;66799.31;5027300;28;20046;-82
2023/01/20 01:05:37;;;;;;;90.28;43.13;;;;;;;0.19;100.00;66804.16;5038959;28;20052;-82
2023/01/20 01:08:03;;;;;;;90.53;36.10;;;;;;;0.19;100.00;66804.16;5046408;28;20416;-83
2023/01/20 01:10:28;;;;;;;104.07;54.40;;;;;;;0.20;100.00;66804.72;5025513;28;20080;-83
2023/01/20 01:12:54;;;;;;;87.93;41.83;;;;;;;0.20;100.00;66802.09;5033526;28;20045;-83
2023/01/20 01:15:19;;;;;;;95.55;46.00;;;;;;;0.17;100.00;66801.91;5026027;28;20781;-82
2023/01/20 01:17:44;;;;;;;77.72;36.15;;;;;;;0.16;100.00;66798.16;5029403;28;20041;-82
2023/01/20 01:20:11;;;;;;;88.90;42.13;;;;;;;;;;5048871;28;20560;-83
2023/01/20 01:22:36;;;;;;;78.82;38.40;;;;;;;0.17;100.00;66799.31;5028916;28;20045;-82
2023/01/20 01:25:02;;;;;;;79.70;36.63;;;;;;;0.17;100.00;66794.06;5027803;28;20060;-82
2023/01/20 01:27:28;;;;;;;59.60;27.23;;;;;;;0.13;100.00;66799.47;5030653;28;20104;-83
2023/01/20 01:29:54;;;;;;;85.68;40.00;;;;;;;0.17;100.00;66798.72;5040777;28;20596;-82
2023/01/20 01:32:19;;;;;;;67.40;29.85;;;;;;;;;;5021948;28;21050;-83
2023/01/20 01:34:45;;;;;;;76.40;32.10;;;;;;;;;;5030364;28;20048;-82
2023/01/20 01:37:10;;;;;;;76.88;34.35;;;;;;;0.18;100.00;66802.47;5020670;28;20057;-81
2023/01/20 01:39:35;;;;;;;67.50;27.92;;;;;;;0.18;100.00;66800.41;5029937;28;20045;-83
2023/01/20 01:42:01;;;;;;;86.10;38.90;;;;;;;0.17;100.00;66799.31;5035531;28;20740;-82
2023/01/20 01:44:29;;;;;;;76.88;34.00;;;;;;;0.16;100.00;66798.16;5032062;28;20058;-82
2023/01/20 01:46:54;;;;;;;75.78;31.63;;;;;;;0.14;100.00;66798.53;5018101;28;20045;-82
2023/01/20 01:49:23;;;;;;;54.53;26.00;;;;;;;0.11;100.00;66795.16;5031904;28;20053;-82
2023/01/20 01:51:54;;;;;;;70.57;31.05;;;;;;;0.10;100.00;66791.41;5027582;28;20714;-82
2023/01/20 01:54:23;;;;;;;80.45;38.05;;;;;;;;;;5035101;28;20048;-82
2023/01/20 01:56:49;;;;;;;;;;;;;;;0.12;100.00;66793.13;5042557;28;20292;-82
2023/01/20 01:59:16;;;;;;;79.03;40.78;;;;;;;0.04;100.00;66784.13;5043855;28;19952;-82
2023/01/20 02:01:47;;;;;;;67.00;33.40;;;;;;;0.05;100.00;66785.78;5037501;28;20042;-83
2023/01/20 02:04:15;;;;;;;78.43;35.58;;;;;;;0.08;100.00;66789.16;5032534;28;20056;-83
2023/01/20 02:06:44;;;;;;;52.97;26.77;;;;;;;0.04;100.00;66786.75;5032308;28;20041;-83
2023/01/20 02:09:11;;;;;;;74.93;37.20;;;;;;;0.10;100.00;66796.09;5035998;28;20311;-82
2023/01/20 02:11:44;;;;;;;59.58;26.73;;;;;;;;;;5023123;28;20042;-82
2023/01/20 02:14:09;;;;;;;62.58;29.15;;;;;;;0.04;100.00;66787.28;5052684;28;20049;-82
2023/01/20 02:16:46;;;;;;;63.65;32.00;;;;;;;0.07;100.00;66788.06;5038040;28;20046;-83
2023/01/20 02:19:30;;;;;;;63.55;30.20;;;;;;;0.05;100.00;66785.78;5031928;28;20042;-82
2023/01/20 02:22:15;;;;;;;45.28;19.63;;;;;;;;;;5051616;28;20129;-83
2023/01/20 02:24:43;;;;;;;47.53;22.55;;;;;;;0.03;100.00;66783.56;5025799;28;20046;-82
2023/01/20 02:27:23;;;;;;;45.17;19.88;;;;;;;0.03;100.00;66786.19;5036867;28;20101;-82
2023/01/20 02:30:03;;;;;;;64.50;33.92;;;;;;;0.04;100.00;66784.69;5033849;28;20049;-82
2023/01/20 02:32:28;;;;;;;52.05;25.23;;;;;;;;;;5029012;28;20049;-84
2023/01/20 02:35:00;;;;;;;50.85;23.55;;;;;;;;;;5039518;28;20054;-84
2023/01/20 02:37:27;;;;;;;43.63;20.60;;;;;;;;;;5033402;28;20561;-83
2023/01/20 02:40:04;;;;;;;49.85;22.50;;;;;;;0.03;100.00;66783.56;5037680;28;20629;-83
2023/01/20 02:42:40;;;;;;;56.08;24.55;;;;;;;0.01;100.00;66781.31;5034697;28;20046;-83
2023/01/20 02:45:18;;;;;;;70.47;33.50;;;;;;;0.04;100.00;66789.91;5049492;28;20084;-82
2023/01/20 02:48:09;;;;;;;64.07;31.13;;;;;;;0.05;100.00;66788.41;5016650;28;20049;-83
2023/01/20 02:50:55;;;;;;;69.70;32.90;;;;;;;0.06;100.00;66788.97;5035929;28;20069;-82
2023/01/20 02:53:23;;;;;;;71.85;34.78;;;;;;;0.04;100.00;66779.44;5030820;28;20080;-83
2023/01/20 02:55:50;;;;;;;67.88;30.55;;;;;;;;;;5029765;28;20061;-83
2023/01/20 02:58:24;;;;;;;70.68;28.23;;;;;;;0.11;100.00;66791.97;5049953;22;20059;-82
2023/01/20 03:01:02;;;;;;;80.78;39.60;;;;;;;0.10;100.00;66791.41;5052019;28;20495;-82
2023/01/20 03:03:33;;;;;;;79.22;33.25;;;;;;;0.10;100.00;66796.66;5052926;28;20060;-82
2023/01/20 03:06:02;;;;;;;85.70;43.38;;;;;;;0.11;100.00;66795.16;5050826;28;20094;-82
2023/01/20 03:08:30;;;;;;;81.05;36.83;;;;;;;0.11;100.00;66784.69;5048716;28;20041;-82
2023/01/20 03:11:02;;;;;;;89.15;45.38;;;;;;;0.12;100.00;66793.69;5055338;28;20083;-82
2023/01/20 03:13:28;;;;;;;87.80;45.30;;;;;;;0.14;100.00;66795.34;5052411;28;20080;-82
2023/01/20 03:16:01;;;;;;;71.45;30.00;;;;;;;0.10;100.00;66791.41;5053176;28;20053;-82
2023/01/20 03:18:31;;;;;;;84.95;40.33;;;;;;;;;;5047950;28;20057;-82
2023/01/20 03:20:59;;;;;;;80.60;37.78;;;;;;;0.12;100.00;66793.13;5053507;28;20037;-82
2023/01/20 03:23:27;;;;;;;85.30;44.40;;;;;;;0.10;100.00;66791.41;5053530;28;20099;-82
2023/01/20 03:25:52;;;;;;;84.30;44.03;;;;;;;0.11;100.00;66791.97;5055543;28;20059;-82
2023/01/20 03:28:18;;;;;;;84.22;42.28;;;;;;;;;;5055319;28;20037;-82
2023/01/20 03:30:43;;;;;;;90.85;45.80;;;;;;;;;;5055482;28;20044;-82
2023/01/20 03:33:09;;;;;;;79.47;39.00;;;;;;;;;;5053256;28;20400;-82
2023/01/20 03:35:34;;;;;;;84.43;40.08;;;;;;;;;;5055847;28;20099;-82
2023/01/20 03:38:00;;;;;;;74.43;32.75;;;;;;;0.10;100.00;66794.03;5055032;28;20124;-82
2023/01/20 03:40:33;;;;;;;79.90;40.42;;;;;;;0.08;100.00;66788.59;5053945;28;20045;-82
2023/01/20 03:43:08;;;;;;;80.65;42.53;;;;;;;0.09;100.00;66792.38;5053155;28;20442;-82
2023/01/20 03:45:39;;;;;;;82.00;39.67;;;;;;;;;;5052134;28;20048;-82
2023/01/20 03:48:12;;;;;;;60.88;31.73;;;;;;;;;;5051781;28;20044;-82
2023/01/20 03:50:48;;;;;;;54.50;25.88;;;;;;;0.07;100.00;66782.81;5061253;28;20045;-82
2023/01/20 03:53:16;;;;;;;64.97;32.33;;;;;;;;;;5046856;28;20048;-83
2023/01/20 03:55:47;;;;;;;63.90;31.58;;;;;;;;;;5051241;28;20511;-82
2023/01/20 03:58:17;;;;;;;58.53;27.17;;;;;;;0.04;100.00;66778.88;5048989;28;20090;-82
2023/01/20 04:00:45;;;;;;;50.67;23.73;;;;;;;0.05;100.00;66785.25;5048762;28;20037;-83
2023/01/20 04:03:39;;;;;;;60.60;25.93;;;;;;;0.05;100.00;66788.41;5049112;28;20048;-82
2023/01/20 04:06:07;;;;;;;64.00;26.67;;;;;;;-0.01;100.00;66781.66;5045601;28;20075;-82
2023/01/20 04:08:40;;;;;;;63.17;26.80;;;;;;;-0.02;100.00;66777.94;5051542;28;20499;-83
2023/01/20 04:11:07;;;;;;;65.53;31.13;;;;;;;0.03;100.00;66778.31;5049770;28;20098;-83
2023/01/20 04:13:33;;;;;;;70.05;35.20;;;;;;;0.05;100.00;66785.78;5048821;28;20045;-82
2023/01/20 04:16:00;;;;;;;62.17;32.75;;;;;;;;;;5048962;28;20036;-82
2023/01/20 04:18:25;;;;;;;63.53;28.58;;;;;;;0.05;100.00;66788.41;5048184;28;20248;-82
2023/01/20 04:20:52;;;;;;;57.60;23.83;;;;;;;;;;5049658;28;20491;-82
2023/01/20 04:23:36;;;;;;;65.32;31.60;;;;;;;0.05;100.00;66777.94;5048991;28;20490;-82
2023/01/20 04:26:01;;;;;;;64.13;32.72;;;;;;;-0.01;100.00;66779.59;5046414;28;20037;-82
2023/01/20 04:28:26;;;;;;;58.35;29.77;;;;;;;;;;5049491;28;20041;-82
2023/01/20 04:30:52;;;;;;;57.97;27.25;;;;;;;0.06;100.00;66786.94;5051046;28;20052;-82
2023/01/20 04:33:17;;;;;;;61.30;32.72;;;;;;;0.03;100.00;66783.56;5048047;28;20037;-82
2023/01/20 04:35:42;;;;;;;60.67;26.92;;;;;;;0.04;100.00;66778.88;5049986;28;20148;-82
2023/01/20 04:38:07;;;;;;;58.20;28.85;;;;;;;;;;5049817;28;20044;-82
2023/01/20 04:40:33;;;;;;;46.65;23.88;;;;;;;0.04;100.00;66779.44;5050323;28;20051;-82
2023/01/20 04:42:58;;;;;;;42.05;19.70;;;;;;;0.01;100.00;66783.91;5049748;28;20056;-82
2023/01/20 04:45:24;;;;;;;55.53;27.17;;;;;;;0.03;100.00;66782.97;5050542;28;20112;-82
2023/01/20 04:47:49;;;;;;;59.72;31.00;;;;;;;0.07;100.00;66787.50;5049339;28;20037;-82
2023/01/20 04:50:15;;;;;;;64.30;32.17;;;;;;;;;;5048545;28;20045;-82
2023/01/20 04:52:40;;;;;;;62.35;33.22;;;;;;;0.06;100.00;66789.56;5053102;28;20057;-82
2023/01/20 04:55:06;;;;;;;54.78;26.08;;;;;;;;;;5049384;28;20041;-82
2023/01/20 04:57:31;;;;;;;51.40;22.65;;;;;;;0.07;100.00;66787.50;5051050;28;20066;-82
2023/01/20 04:59:57;;;;;;;65.95;33.15;;;;;;;0.06;100.00;66789.56;5049939;28;20056;-82
2023/01/20 05:02:22;;;;;;;57.10;30.10;;;;;;;0.06;100.00;66781.69;5048220;28;20049;-82
2023/01/20 05:04:47;;;;;;;50.60;23.23;;;;;;;0.04;100.00;66787.28;5049756;28;20040;-82
2023/01/20 05:07:13;;;;;;;50.03;26.45;;;;;;;-0.01;100.00;66781.66;5050093;28;20067;-82
2023/01/20 05:09:38;;;;;;;52.97;27.88;;;;;;;0.00;100.00;66785.41;5053064;28;20053;-82
2023/01/20 05:12:03;;;;;;;50.28;26.73;;;;;;;;;;5046979;28;20036;-83
2023/01/20 05:14:28;;;;;;;48.45;25.83;;;;;;;;;;5045261;28;20065;-82
2023/01/20 05:16:54;;;;;;;53.10;29.70;;;;;;;0.05;100.00;66785.25;5049738;28;20045;-82
2023/01/20 05:19:19;;;;;;;56.25;29.10;;;;;;;;;;5051190;28;20041;-82
2023/01/20 05:21:44;;;;;;;48.08;25.02;;;;;;;;;;5048018;28;20116;-82
2023/01/20 05:24:10;;;;;;;51.08;28.08;;;;;;;0.06;100.00;66786.94;5050776;28;20415;-82
2023/01/20 05:26:35;;;;;;;42.13;19.85;;;;;;;0.08;100.00;66788.59;5046773;28;20124;-83
2023/01/20 05:29:01;;;;;;;56.28;30.15;;;;;;;;;;5043199;28;20516;-83
2023/01/20 05:31:27;;;;;;;54.45;29.45;;;;;;;0.10;100.00;66791.41;5043379;28;21537;-82
2023/01/20 05:33:52;;;;;;;51.65;26.80;;;;;;;0.10;100.00;66796.66;5046289;28;20049;-83
2023/01/20 05:36:17;;;;;;;52.00;27.08;;;;;;;0.11;100.00;66794.59;5046118;28;20080;-83
2023/01/20 05:38:43;;;;;;;46.70;23.20;;;;;;;0.11;100.00;66794.59;5047344;28;20061;-83
2023/01/20 05:41:09;;;;;;;42.38;21.30;;;;;;;0.11;100.00;66794.59;5039071;28;20038;-83
2023/01/20 05:43:34;;;;;;;49.95;23.38;;;;;;;0.07;100.00;66787.50;5045997;28;20040;-83
2023/01/20 05:46:00;;;;;;;47.35;24.17;;;;;;;;;;5044230;28;20124;-83
2023/01/20 05:48:25;;;;;;;49.78;23.08;;;;;;;0.08;100.00;66783.38;5046679;28;20041;-83
2023/01/20 05:50:50;;;;;;;49.88;25.65;;;;;;;;;;5046433;28;20055;-83
2023/01/20 05:53:16;;;;;;;47.97;22.65;;;;;;;0.05;100.00;66785.25;5046309;28;20036;-83
2023/01/20 05:55:42;;;;;;;46.65;24.58;;;;;;;-0.01;100.00;66779.06;5046323;28;20069;-83
2023/01/20 05:58:08;;;;;;;46.20;22.83;;;;;;;0.00;100.00;66780.19;5046077;28;20064;-83
2023/01/20 06:00:34;;;;;;;42.15;20.40;;;;;;;0.02;100.00;66785.03;5046213;28;20051;-82
2023/01/20 06:02:59;;;;;;;48.17;26.23;;;;;;;;;;5045126;28;20041;-82
2023/01/20 06:05:25;;;;;;;47.08;25.17;;;;;;;0.06;100.00;66786.94;5043293;28;20056;-82
2023/01/20 06:07:50;;;;;;;38.55;19.63;;;;;;;0.02;100.00;66782.44;5045744;28;20053;-83
2023/01/20 06:10:16;;;;;;;48.80;22.77;;;;;;;0.05;100.00;66780.56;5040367;28;20076;-82
2023/01/20 06:12:42;;;;;;;44.55;20.42;;;;;;;0.05;100.00;66785.78;5045577;28;20033;-82
2023/01/20 06:15:08;;;;;;;50.38;23.60;;;;;;;0.07;100.00;66790.66;5044880;28;20087;-82
2023/01/20 06:17:34;;;;;;;59.65;29.33;;;;;;;;;;5044458;28;20041;-82
2023/01/20 06:19:59;;;;;;;58.17;29.45;;;;;;;0.07;100.00;66788.06;5041631;28;20048;-83
2023/01/20 06:22:25;;;;;;;52.17;24.10;;;;;;;0.06;100.00;66786.94;5047722;28;20037;-82
2023/01/20 06:24:51;;;;;;;55.40;26.90;;;;;;;0.07;100.00;66787.50;5049551;28;20044;-82
2023/01/20 06:27:16;;;;;;;43.83;19.30;;;;;;;;;;5048150;28;20178;-82
2023/01/20 06:29:42;;;;;;;47.13;21.65;;;;;;;0.02;100.00;66782.44;5050989;28;20524;-82
2023/01/20 06:32:07;;;;;;;59.88;31.90;;;;;;;0.03;100.00;66783.56;5049517;28;20044;-82
2023/01/20 06:34:32;;;;;;;64.90;30.05;;;;;;;0.06;100.00;66788.97;5050065;28;20048;-82
2023/01/20 06:36:58;;;;;;;59.92;30.70;;;;;;;0.07;100.00;66788.06;5043120;28;20039;-82
2023/01/20 06:39:23;;;;;;;76.32;31.38;;;;;;;0.04;100.00;66784.69;5047604;28;20110;-82
2023/01/20 06:41:49;;;;;;;56.63;29.02;;;;;;;0.02;100.00;66782.44;5049019;28;20464;-82
2023/01/20 06:44:14;;;;;;;66.75;31.45;;;;;;;0.07;100.00;66788.06;5049764;28;20048;-83
2023/01/20 06:46:39;;;;;;;55.67;26.00;;;;;;;0.06;100.00;66786.94;5050243;28;20048;-83
2023/01/20 06:49:05;;;;;;;43.50;20.27;;;;;;;0.04;100.00;66784.69;5048761;28;20041;-83
2023/01/20 06:51:32;;;;;;;50.65;24.20;;;;;;;0.05;100.00;66785.25;5046304;28;20037;-83
2023/01/20 06:53:57;;;;;;;68.15;33.72;;;;;;;0.02;100.00;66785.03;5044058;28;20123;-83
2023/01/20 06:56:23;;;;;;;55.50;22.42;;;;;;;-0.01;100.00;66784.28;5048858;28;20072;-83
2023/01/20 06:58:48;;;;;;;63.50;27.58;;;;;;;-0.04;100.00;66776.25;5047745;28;20044;-83
2023/01/20 07:01:22;;;;;;;65.65;26.48;;;;;;;-0.06;100.00;66776.03;5049029;28;20039;-83
2023/01/20 07:03:48;;;;;;;62.00;30.70;;;;;;;;;;5049876;28;20040;-83
2023/01/20 07:06:45;;;;;;;59.28;26.40;;;;;;;-0.10;100.00;66774.16;5047566;28;20043;-83
2023/01/20 07:09:11;;;;;;;59.83;28.02;;;;;;;-0.14;100.00;66767.06;5012474;28;20110;-83
2023/01/20 07:11:37;;;;;;;60.42;27.85;;;;;;;-0.14;100.00;66767.06;5049162;28;20045;-83
2023/01/20 07:14:03;;;;;;;57.67;25.55;;;;;;;-0.13;100.00;66765.56;5049406;28;20041;-83
2023/01/20 07:16:29;;;;;;;52.63;20.88;;;;;;;-0.12;100.00;66766.69;5048243;28;20095;-83
2023/01/20 07:18:55;;;;;;;63.42;25.33;;;;;;;-0.09;100.00;66770.06;5047515;28;20033;-83
2023/01/20 07:21:20;;;;;;;60.13;25.13;;;;;;;;;;5049661;28;20044;-83
2023/01/20 07:23:46;;;;;;;60.20;28.23;;;;;;;-0.12;100.00;66769.84;5050765;28;20068;-83
2023/01/20 07:26:14;;;;;;;61.75;27.30;;;;;;;-0.11;100.00;66767.81;5051418;28;20064;-82
2023/01/20 07:28:40;;;;;;;53.22;21.50;;;;;;;-0.12;100.00;66767.25;5052354;28;20111;-83
2023/01/20 07:31:09;;;;;;;55.92;24.58;;;;;;;;;;5050952;28;20049;-83
2023/01/20 07:33:35;;;;;;;62.15;27.63;;;;;;;-0.08;100.00;66776.44;5045917;28;20045;-83
2023/01/20 07:36:00;;;;;;;50.63;20.70;;;;;;;-0.11;100.00;66767.81;5047671;28;20045;-83
2023/01/20 07:38:26;;;;;;;40.20;16.25;;;;;;;;;;5048744;28;20041;-83
2023/01/20 07:40:51;;;;;;;63.67;29.65;;;;;;;-0.12;100.00;66769.31;5049583;28;20676;-83
2023/01/20 07:43:17;;;;;;;58.22;27.15;;;;;;;-0.10;100.00;66774.16;5048131;28;20132;-83
2023/01/20 07:45:42;;;;;;;49.20;23.40;;;;;;;-0.10;100.00;66768.94;5049369;28;20048;-83
2023/01/20 07:48:08;;;;;;;51.92;26.52;;;;;;;-0.12;100.00;66766.69;5048940;28;20053;-83
2023/01/20 07:50:36;;;;;;;52.70;25.90;;;;;;;-0.14;100.00;66764.44;5048511;28;20053;-83
2023/01/20 07:53:02;;;;;;;53.28;25.98;;;;;;;-0.12;100.00;66766.69;5048925;28;20072;-83
2023/01/20 07:55:28;;;;;;;58.40;28.33;;;;;;;-0.14;100.00;66765.00;5048140;28;21708;-83
2023/01/20 07:57:53;;;;;;;52.25;25.25;;;;;;;-0.13;100.00;66768.19;5049196;28;20052;-83
2023/01/20 08:00:18;;;;;;;60.05;26.17;;;;;;;;;;5048220;28;20037;-83
2023/01/20 08:02:44;;;;;;;46.22;22.35;;;;;;;-0.15;100.00;66765.94;5048363;28;20056;-83
2023/01/20 08:05:09;;;;;;;59.72;28.00;;;;;;;-0.12;100.00;66769.31;5046964;28;20075;-83
2023/01/20 08:07:34;;;;;;;42.53;19.25;;;;;;;-0.09;100.00;66765.38;5047926;28;20074;-83
2023/01/20 08:10:00;;;;;;;48.28;24.40;;;;;;;-0.13;100.00;66765.56;5044244;28;20104;-83
2023/01/20 08:12:27;;;;;;;53.40;28.95;;;;;;;-0.14;100.00;66767.63;5048313;28;20067;-83
2023/01/20 08:14:52;;;;;;;54.35;23.75;;;;;;;-0.11;100.00;66767.81;5049605;28;20404;-83
2023/01/20 08:17:17;;;;;;;54.50;27.70;;;;;;;;;;5048251;28;20051;-83
2023/01/20 08:19:43;;;;;;;50.90;23.25;;;;;;;-0.10;100.00;66774.72;5048199;28;20114;-83
2023/01/20 08:22:08;;;;;;;55.80;28.17;;;;;;;;;;5049794;28;20040;-83
2023/01/20 08:24:33;;;;;;;63.83;33.20;;;;;;;-0.09;100.00;66770.06;5048138;28;20056;-83
2023/01/20 08:26:59;;;;;;;48.60;22.50;;;;;;;-0.05;100.00;66774.56;5048138;28;20055;-83
2023/01/20 08:29:25;;;;;;;51.50;25.40;;;;;;;-0.05;100.00;66777.19;5049686;28;20121;-83
2023/01/20 08:31:50;;;;;;;60.05;26.58;;;;;;;-0.02;100.00;66778.50;5049653;28;20447;-84
2023/01/20 08:34:17;;;;;;;50.72;24.25;;;;;;;-0.03;100.00;66776.78;5048528;28;20048;-83
2023/01/20 08:36:43;;;;;;;57.03;28.05;;;;;;;;;;5047311;28;20396;-83
2023/01/20 08:39:11;;;;;;;66.75;33.70;;;;;;;0.00;100.00;66780.19;5048373;28;20051;-83
2023/01/20 08:41:38;;;;;;;54.10;26.63;;;;;;;0.02;100.00;66782.44;5048854;28;20522;-84
2023/01/20 08:44:05;;;;;;;61.65;32.15;;;;;;;0.01;100.00;66780.75;5049036;28;20661;-83
2023/01/20 08:46:31;;;;;;;57.53;27.95;;;;;;;0.00;100.00;66780.19;5047259;28;20064;-83
2023/01/20 08:48:56;;;;;;;65.43;33.10;;;;;;;0.01;100.00;66783.91;5048785;28;20065;-83
2023/01/20 08:51:30;;;;;;;62.13;32.65;;;;;;;0.02;100.00;66777.19;5049043;28;20127;-83
2023/01/20 08:53:56;;;;;;;62.13;32.88;;;;;;;0.06;100.00;66786.34;5047906;28;20038;-83
2023/01/20 08:56:22;;;;;;;63.47;27.73;;;;;;;;;;5047079;28;20036;-83
2023/01/20 08:58:47;;;;;;;57.45;27.20;;;;;;;0.08;100.00;66789.16;5047252;28;20052;-82
2023/01/20 09:01:23;;;;;;;41.10;18.55;;;;;;;;;;5050003;28;20079;-82
2023/01/20 09:03:48;;;;;;;59.63;30.75;;;;;;;;;;5046638;28;20051;-82
2023/01/20 09:06:13;;;;;;;64.85;34.30;;;;;;;;;;5050598;28;20037;-82
2023/01/20 09:08:39;;;;;;;53.83;24.42;;;;;;;-0.02;100.00;66780.56;5047713;28;20427;-82
2023/01/20 09:11:08;;;;;;;33.47;15.02;;;;;;;-0.05;100.00;66774.56;5050363;28;20037;-82
2023/01/20 09:13:33;;;;;;;46.97;21.88;;;;;;;-0.04;100.00;66775.69;5050996;28;20037;-82
2023/01/20 09:15:59;;;;;;;47.92;22.30;;;;;;;-0.04;100.00;66775.69;5051505;28;20059;-82
2023/01/20 09:18:24;;;;;;;49.03;26.17;;;;;;;;;;5055828;28;20122;-82
2023/01/20 09:20:49;;;;;;;55.85;29.55;;;;;;;-0.06;100.00;66773.44;5056664;28;20053;-82
2023/01/20 09:23:15;;;;;;;49.70;25.85;;;;;;;-0.04;100.00;66778.28;5056530;28;20037;-82
2023/01/20 09:25:40;;;;;;;55.08;22.42;;;;;;;-0.03;100.00;66779.41;5048908;28;20041;-81
2023/01/20 09:28:05;;;;;;;41.92;18.40;;;;;;;-0.04;100.00;66776.25;5049004;28;20048;-82
2023/01/20 09:30:31;;;;;;;57.63;28.73;;;;;;;-0.02;100.00;66777.94;5046085;28;21121;-82
2023/01/20 09:32:59;;;;;;;62.78;31.85;;;;;;;-0.01;100.00;66779.59;5046779;28;20049;-82
2023/01/20 09:35:25;;;;;;;37.83;17.95;;;;;;;-0.01;100.00;66779.06;5044073;28;20033;-82
2023/01/20 09:46:27;;;;;;;52.30;25.98;;;;;;;0.02;100.00;66785.03;5043090;28;20102;-81
2023/01/20 09:55:03;;;;;;;53.00;21.27;;;;;;;0.04;100.00;66789.91;5054908;28;20098;-82
2023/01/20 09:57:35;;;;;;;61.72;29.35;;;;;;;0.07;100.00;66790.66;5044275;28;20052;-82
2023/01/20 10:00:15;;;;;;;62.90;27.77;;;;;;;0.10;100.00;66791.41;5048245;28;20146;-82
2023/01/20 10:02:46;;;;;;;52.45;27.20;;;;;;;0.13;100.00;66797.41;5046570;28;20547;-81
2023/01/20 10:05:14;;;;;;;57.28;24.30;;;;;;;;;;5046951;28;20041;-81
2023/01/20 10:07:50;;;;;;;59.28;31.02;;;;;;;0.16;100.00;66797.59;5041896;28;20566;-81
2023/01/20 10:10:45;;;;;;;59.63;29.88;;;;;;;0.18;100.00;66800.41;5046075;28;20667;-82
2023/01/20 10:13:13;;;;;;;59.15;29.55;;;;;;;0.20;100.00;66802.09;5047396;28;20397;-82
2023/01/20 10:15:49;;;;;;;51.97;23.05;;;;;;;0.23;100.00;66805.47;5050950;28;20048;-81
2023/01/20 10:18:21;;;;;;;64.45;31.33;;;;;;;0.26;100.00;66811.47;5052133;28;20036;-82
2023/01/20 10:21:00;;;;;;;64.38;30.20;;;;;;;0.30;100.00;66812.78;5059946;28;20424;-82
2023/01/20 10:23:41;;;;;;;60.75;31.45;;;;;;;0.27;100.00;66809.97;5056661;28;20131;-81
2023/01/20 10:26:12;;;;;;;64.07;30.83;;;;;;;0.28;100.00;66805.31;5046850;28;20042;-82
2023/01/20 10:28:55;;;;;;;65.55;26.45;;;;;;;0.30;100.00;66812.78;5050839;28;20060;-82
2023/01/20 10:31:26;;;;;;;63.33;34.03;;;;;;;0.32;100.00;66815.06;5046319;28;20119;-81
2023/01/20 10:33:54;;;;;;;58.70;25.48;;;;;;;0.32;100.00;66817.66;5051826;28;20045;-82
2023/01/20 10:36:26;;;;;;;77.85;38.92;;;;;;;0.37;100.00;66821.22;5047288;28;20037;-82
2023/01/20 10:39:08;;;;;;;74.28;37.20;;;;;;;0.42;100.00;66829.47;5051626;28;20106;-81
2023/01/20 10:41:40;;;;;;;76.57;40.08;;;;;;;0.41;100.00;66827.78;5050598;28;20438;-82
2023/01/20 10:44:10;;;;;;;67.30;32.55;;;;;;;;;;5052130;28;20463;-81
2023/01/20 10:46:35;;;;;;;61.60;33.10;;;;;;;;;;5035218;28;20057;-81
2023/01/20 10:49:10;;;;;;;59.70;28.95;;;;;;;0.37;100.00;66815.97;5051846;28;20043;-81
2023/01/20 10:51:49;;;;;;;56.28;26.08;;;;;;;0.38;100.00;66822.34;5049497;28;20059;-81
2023/01/20 10:54:23;;;;;;;;;;;;;;;0.44;100.00;66831.16;5045558;28;20401;-82
2023/01/20 10:56:52;;;;;;;37.90;17.58;;;;;;;0.30;100.00;66812.78;5064918;28;20396;-82
2023/01/20 10:59:23;;;;;;;57.08;25.98;;;;;;;0.34;100.00;66812.06;5050782;28;20080;-82
2023/01/20 11:01:52;;;;;;;62.75;32.97;;;;;;;0.41;100.00;66825.16;5066936;28;20048;-81
2023/01/20 11:04:19;;;;;;;68.88;35.05;;;;;;;0.42;100.00;66829.47;5051366;28;20040;-82
2023/01/20 11:06:50;;;;;;;60.95;33.75;;;;;;;0.45;100.00;66830.22;5051171;28;20507;-82
2023/01/20 11:09:26;;;;;;;61.00;32.40;;;;;;;0.46;100.00;66836.00;5048926;28;20106;-81
2023/01/20 11:11:51;;;;;;;50.92;23.55;;;;;;;0.45;100.00;66829.66;5050780;28;20439;-82
2023/01/20 11:14:17;;;;;;;60.05;31.05;;;;;;;0.52;100.00;66840.16;5051728;28;20041;-82
2023/01/20 11:16:45;;;;;;;60.50;29.92;;;;;;;;;;5053227;28;20060;-81
2023/01/20 11:19:10;;;;;;;55.45;28.35;;;;;;;0.57;100.00;66845.78;5040333;28;20036;-82
2023/01/20 11:21:36;;;;;;;56.53;28.60;;;;;;;;;;5050096;28;20041;-81
2023/01/20 11:24:23;;;;;;;61.00;31.08;;;;;;;0.61;100.00;66847.09;5051996;28;20044;-82
2023/01/20 11:26:49;;;;;;;57.35;28.08;;;;;;;0.62;100.00;66853.47;5029822;28;20508;-82
2023/01/20 11:29:14;;;;;;;49.40;22.20;;;;;;;0.65;100.00;66852.16;5051185;28;20045;-82
2023/01/20 11:31:43;;;;;;;48.70;24.92;;;;;;;;;;5045940;28;20080;-82
2023/01/20 11:34:28;;;;;;;52.03;25.25;;;;;;;0.71;100.00;66860.97;5049379;28;20140;-82
2023/01/20 11:37:03;;;;;;;54.65;28.25;;;;;;;;;;5062111;28;20162;-82
2023/01/20 11:39:32;;;;;;;51.00;26.63;;;;;;;0.78;100.00;66860.44;5048709;28;20504;-82
2023/01/20 11:42:15;;;;;;;47.78;23.65;;;;;;;0.83;100.00;66866.59;5051208;28;20075;-83
2023/01/20 11:44:58;;;;;;;44.35;23.73;;;;;;;0.89;100.00;66881.22;5050631;28;20495;-83
2023/01/20 11:47:28;;;;;;;50.15;28.02;;;;;;;;;;5046046;28;20646;-83
2023/01/20 11:50:18;;;;;;;48.25;27.58;;;;;;;0.98;100.00;66890.22;5051568;28;20049;-83
2023/01/20 11:52:46;;;;;;;39.65;20.25;;;;;;;1.01;100.00;66894.16;5052475;28;20041;-83
2023/01/20 11:55:11;;;;;;;47.55;26.52;;;;;;;1.02;100.00;66892.66;5047981;28;20044;-83
2023/01/20 11:57:41;;;;;;;43.53;23.42;;;;;;;1.05;100.00;66898.09;5046249;28;20389;-83
2023/01/20 12:00:26;;;;;;;46.97;23.95;;;;;;;;;;5045156;28;20044;-83
2023/01/20 12:02:57;;;;;;;40.42;23.35;;;;;;;;;;5051832;28;20416;-83
2023/01/20 12:05:38;;;;;;;38.55;18.20;;;;;;;1.06;100.00;66899.22;5048515;28;20041;-83
2023/01/20 12:08:04;;;;;;;42.55;24.95;;;;;;;;;;5050124;28;20040;-83
2023/01/20 12:10:33;;;;;;;46.40;24.42;;;;;;;1.12;100.00;66903.34;5051877;28;20179;-83